createdAt,value
2023-05-08T00:03:02.073Z,2.75
2023-05-08T00:08:05.962Z,2.40
2023-05-08T00:13:09.328Z,3.08
2023-05-08T00:18:14.087Z,3.30
2023-05-08T00:23:17.458Z,2.55
2023-05-08T00:28:21.691Z,3.00
2023-05-08T00:33:26.454Z,2.97
2023-05-08T00:38:31.621Z,2.70
2023-05-08T00:43:35.860Z,7.47
2023-05-08T00:48:41.649Z,5.20
2023-05-08T00:53:45.562Z,4.95
2023-05-08T00:58:49.104Z,5.18
2023-05-08T01:03:54.228Z,4.85
2023-05-08T01:08:57.670Z,3.85
2023-05-08T01:14:10.156Z,3.85
2023-05-08T01:19:42.923Z,3.35
2023-05-08T01:25:25.435Z,3.65
2023-05-08T01:30:50.771Z,3.50
2023-05-08T01:36:01.814Z,5.35
2023-05-08T01:41:11.663Z,4.05
2023-05-08T01:46:20.995Z,4.80
2023-05-08T01:51:29.175Z,6.03
2023-05-08T01:56:33.657Z,4.93
2023-05-08T02:01:37.807Z,4.95
2023-05-08T02:06:43.319Z,5.97
2023-05-08T02:11:48.526Z,5.00
2023-05-08T02:16:58.402Z,5.13
2023-05-08T02:22:05.214Z,4.95
2023-05-08T02:27:10.528Z,5.22
2023-05-08T02:32:16.351Z,5.13
2023-05-08T02:37:23.711Z,5.07
2023-05-08T02:42:27.869Z,5.43
2023-05-08T02:47:40.556Z,5.22
2023-05-08T02:52:50.958Z,4.90
2023-05-08T02:58:06.025Z,5.65
2023-05-08T03:03:16.613Z,6.72
2023-05-08T03:08:26.278Z,6.97
2023-05-08T03:13:32.523Z,6.23
2023-05-08T03:18:42.604Z,7.88
2023-05-08T03:23:49.100Z,7.38
2023-05-08T03:28:54.951Z,15.70
2023-05-08T03:34:04.227Z,13.15
2023-05-08T03:39:09.567Z,11.35
2023-05-08T03:44:14.221Z,10.93
2023-05-08T03:49:19.316Z,10.52
2023-05-08T03:54:25.689Z,9.40
2023-05-08T03:59:39.708Z,8.43
2023-05-08T04:04:46.630Z,8.15
2023-05-08T04:10:01.381Z,7.22
2023-05-08T04:15:10.343Z,5.63
2023-05-08T04:25:23.779Z,5.45
2023-05-08T04:30:27.940Z,5.50
2023-05-08T04:35:32.076Z,5.35
2023-05-08T04:40:37.205Z,4.95
2023-05-08T04:45:41.001Z,5.68
2023-05-08T04:50:44.591Z,4.32
2023-05-08T04:55:49.558Z,4.38
2023-05-08T05:00:53.212Z,4.30
2023-05-08T05:06:01.641Z,4.70
2023-05-08T05:11:06.991Z,10.35
2023-05-08T05:16:10.810Z,5.57
2023-05-08T05:21:14.762Z,5.97
2023-05-08T05:26:20.263Z,6.47
2023-05-08T05:31:24.218Z,6.03
2023-05-08T05:36:27.973Z,4.68
2023-05-08T05:41:34.296Z,5.05
2023-05-08T05:46:38.534Z,5.13
2023-05-08T05:51:43.247Z,5.47
2023-05-08T05:56:48.714Z,5.10
2023-05-08T06:01:52.769Z,6.50
2023-05-08T06:06:57.025Z,5.13
2023-05-08T06:12:02.348Z,6.10
2023-05-08T06:17:07.147Z,5.05
2023-05-08T06:22:11.236Z,4.55
2023-05-08T06:27:16.676Z,4.65
2023-05-08T06:32:23.448Z,4.85
2023-05-08T06:37:27.794Z,6.50
2023-05-08T06:42:33.414Z,5.40
2023-05-08T06:47:37.784Z,5.03
2023-05-08T06:52:42.469Z,4.75
2023-05-08T06:57:50.723Z,6.22
2023-05-08T07:02:54.915Z,5.07
2023-05-08T07:08:10.539Z,4.63
2023-05-08T08:00:33.598Z,5.30
2023-05-08T08:14:18.037Z,6.03
2023-05-08T08:20:18.319Z,8.30
2023-05-08T08:26:32.844Z,5.93
2023-05-08T08:38:03.283Z,6.97
2023-05-08T08:44:01.104Z,7.57
2023-05-08T08:49:48.137Z,6.45
2023-05-08T08:55:44.202Z,6.38
2023-05-08T09:01:36.130Z,6.03
2023-05-08T09:13:35.255Z,7.63
2023-05-08T09:18:39.928Z,7.00
2023-05-08T09:24:29.103Z,9.90
2023-05-08T09:56:57.989Z,6.32
2023-05-08T10:08:42.643Z,7.82
2023-05-08T10:14:30.661Z,6.53
2023-05-08T10:19:36.031Z,6.60
2023-05-08T10:38:19.917Z,7.00
2023-05-08T10:50:07.375Z,7.30
2023-05-08T10:55:21.094Z,7.95
2023-05-08T11:00:26.282Z,7.32
2023-05-08T11:05:29.953Z,7.05
2023-05-08T11:24:20.212Z,8.07
2023-05-08T11:29:39.518Z,9.07
2023-05-08T11:41:53.726Z,9.40
2023-05-08T11:47:07.333Z,8.95
2023-05-08T11:52:14.066Z,9.88
2023-05-08T11:57:21.943Z,10.38
2023-05-08T12:02:47.671Z,9.73
2023-05-08T12:08:06.586Z,10.38
2023-05-08T12:13:25.407Z,11.02
2023-05-08T12:19:00.763Z,11.73
2023-05-08T12:24:15.769Z,11.32
2023-05-08T12:35:50.996Z,13.32
2023-05-08T13:01:19.046Z,12.60
2023-05-08T13:06:53.033Z,11.88
2023-05-08T13:11:55.988Z,13.43
2023-05-08T13:17:42.751Z,12.15
2023-05-08T13:56:25.055Z,8.93
2023-05-08T14:01:28.500Z,8.73
2023-05-08T14:06:32.613Z,9.55
2023-05-08T14:11:37.840Z,9.18
2023-05-08T14:16:41.726Z,8.13
2023-05-08T14:21:45.568Z,8.75
2023-05-08T14:26:50.517Z,9.27
2023-05-08T14:31:54.085Z,9.73
2023-05-08T14:36:57.657Z,9.38
2023-05-08T14:47:10.423Z,10.45
2023-05-08T14:52:13.963Z,9.20
2023-05-08T14:57:18.998Z,9.20
2023-05-08T15:02:22.681Z,9.10
2023-05-08T15:07:26.248Z,9.57
2023-05-08T15:12:31.207Z,9.25
2023-05-08T15:17:36.526Z,9.70
2023-05-08T15:22:40.724Z,9.80
2023-05-08T15:27:46.017Z,8.65
2023-05-08T15:32:49.586Z,10.32
2023-05-08T15:37:53.351Z,9.65
2023-05-08T15:42:58.612Z,9.02
2023-05-08T15:48:02.095Z,9.15
2023-05-08T15:53:05.831Z,8.18
2023-05-08T15:58:10.721Z,8.25
2023-05-08T16:03:15.820Z,10.35
2023-05-08T16:08:21.714Z,8.52
2023-05-08T16:13:26.678Z,6.97
2023-05-08T16:18:30.140Z,8.85
2023-05-08T16:23:33.696Z,7.68
2023-05-08T16:28:38.729Z,8.65
2023-05-08T16:33:42.244Z,8.07
2023-05-08T16:38:45.717Z,10.20
2023-05-08T16:43:50.557Z,9.52
2023-05-08T16:48:54.005Z,9.15
2023-05-08T16:53:58.148Z,9.85
2023-05-08T16:59:06.467Z,10.43
2023-05-08T17:04:10.330Z,11.48
2023-05-08T17:09:13.826Z,9.65
2023-05-08T17:14:18.757Z,11.60
2023-05-08T17:19:22.207Z,9.45
2023-05-08T17:24:25.788Z,9.63
2023-05-08T17:29:30.724Z,9.25
2023-05-08T17:34:34.264Z,10.10
2023-05-08T17:39:37.707Z,9.40
2023-05-08T17:44:42.722Z,11.93
2023-05-08T17:49:46.249Z,9.18
2023-05-08T17:54:51.836Z,9.40
2023-05-08T17:59:56.670Z,9.50
2023-05-08T18:05:00.221Z,9.18
2023-05-08T18:10:03.863Z,8.88
2023-05-08T18:15:09.767Z,9.82
2023-05-08T18:20:14.039Z,10.25
2023-05-08T18:25:18.030Z,10.05
2023-05-08T18:30:22.895Z,9.95
2023-05-08T18:35:26.519Z,10.20
2023-05-08T18:40:30.032Z,10.80
2023-05-08T18:45:34.787Z,10.10
2023-05-08T18:50:38.468Z,10.07
2023-05-08T18:55:42.142Z,9.95
2023-05-08T19:00:47.025Z,10.27
2023-05-08T19:05:51.273Z,9.93
2023-05-08T19:10:54.784Z,10.63
2023-05-08T19:15:59.770Z,10.75
2023-05-08T19:21:03.336Z,10.50
2023-05-08T19:26:07.249Z,11.68
2023-05-08T19:31:12.200Z,9.05
2023-05-08T19:36:15.729Z,9.25
2023-05-08T19:41:19.292Z,9.43
2023-05-08T19:46:24.214Z,10.13
2023-05-08T19:51:27.735Z,10.55
2023-05-08T19:56:31.159Z,11.63
2023-05-08T20:01:36.164Z,10.55
2023-05-08T20:06:39.980Z,10.63
2023-05-08T20:11:43.451Z,10.23
2023-05-08T20:16:48.323Z,10.80
2023-05-08T20:21:51.853Z,10.25
2023-05-08T20:26:56.298Z,9.48
2023-05-08T20:32:01.152Z,10.13
2023-05-08T20:37:04.674Z,10.65
2023-05-08T20:42:08.130Z,10.40
2023-05-08T20:47:12.919Z,10.70
2023-05-08T20:52:16.505Z,16.40
2023-05-08T20:57:19.971Z,10.32
2023-05-08T21:02:24.800Z,10.85
2023-05-08T21:07:28.282Z,9.98
2023-05-08T21:12:31.764Z,10.82
2023-05-08T21:17:36.845Z,11.20
2023-05-08T21:22:40.361Z,9.68
2023-05-08T21:27:55.156Z,10.85
2023-05-08T21:33:00.405Z,9.88
2023-05-08T21:38:05.698Z,9.68
2023-05-08T21:43:09.281Z,12.40
2023-05-08T21:48:14.045Z,13.90
2023-05-08T21:53:17.677Z,11.73
2023-05-08T21:58:21.146Z,14.35
2023-05-08T22:03:26.037Z,11.02
2023-05-08T22:08:29.526Z,10.50
2023-05-08T22:13:32.930Z,9.65
2023-05-08T22:18:37.765Z,9.77
2023-05-08T22:23:41.233Z,11.75
2023-05-08T22:28:45.166Z,10.85
2023-05-08T22:33:50.009Z,8.30
2023-05-08T22:38:54.534Z,12.90
2023-05-08T22:43:58.494Z,8.95
2023-05-08T22:49:03.540Z,9.43
2023-05-08T22:54:07.534Z,8.57
2023-05-08T22:59:13.694Z,8.82
2023-05-08T23:04:20.128Z,8.85
2023-05-08T23:09:23.896Z,11.52
2023-05-08T23:15:22.598Z,9.13
2023-05-08T23:20:27.430Z,17.23
2023-05-08T23:25:30.950Z,9.82
2023-05-08T23:30:34.531Z,10.75
2023-05-08T23:35:39.296Z,10.98
2023-05-08T23:40:42.652Z,15.32
2023-05-08T23:45:46.066Z,11.65
2023-05-08T23:50:50.886Z,11.80
2023-05-08T23:55:54.308Z,12.32
